createdAt,value
2022-11-07T00:00:00.863Z,9.719963
2022-11-07T00:01:00.913Z,9.719782
2022-11-07T00:02:00.956Z,9.719853
2022-11-07T00:03:00.933Z,9.720240
2022-11-07T00:04:00.827Z,9.720167
2022-11-07T00:05:00.858Z,9.720213
2022-11-07T00:06:00.812Z,9.720008
2022-11-07T00:07:00.902Z,9.720251
2022-11-07T00:08:00.785Z,9.719566
2022-11-07T00:09:00.773Z,9.719341
2022-11-07T00:10:00.783Z,9.719371
2022-11-07T00:11:00.750Z,9.719328
2022-11-07T00:12:00.763Z,9.719287
2022-11-07T00:13:00.760Z,9.719265
2022-11-07T00:14:00.762Z,9.719270
2022-11-07T00:15:00.714Z,9.719170
2022-11-07T00:16:00.723Z,9.719176
2022-11-07T00:17:00.700Z,9.719211
2022-11-07T00:18:00.678Z,9.719336
2022-11-07T00:19:00.678Z,9.719178
2022-11-07T00:20:00.687Z,9.719237
2022-11-07T00:21:00.647Z,9.719129
2022-11-07T00:22:01.636Z,9.719221
2022-11-07T00:23:00.647Z,9.719266
2022-11-07T00:24:00.624Z,9.719230
2022-11-07T00:25:00.643Z,9.719167
2022-11-07T00:26:00.612Z,9.719198
2022-11-07T00:27:00.648Z,9.718824
2022-11-07T00:28:00.688Z,9.719187
2022-11-07T00:29:00.575Z,9.719129
2022-11-07T00:30:00.590Z,9.719269
2022-11-07T00:31:00.573Z,9.719273
2022-11-07T00:32:00.597Z,9.719292
2022-11-07T00:33:00.677Z,9.719181
2022-11-07T00:34:00.536Z,9.719085
2022-11-07T00:35:00.533Z,9.719190
2022-11-07T00:36:00.557Z,9.719229
2022-11-07T00:37:00.496Z,9.719231
2022-11-07T00:38:00.488Z,9.719229
2022-11-07T00:39:00.484Z,9.719299
2022-11-07T00:40:00.472Z,9.719165
2022-11-07T00:41:00.526Z,9.719215
2022-11-07T00:42:00.447Z,9.719207
2022-11-07T00:43:00.450Z,9.719272
2022-11-07T00:44:00.423Z,9.719279
2022-11-07T00:45:00.426Z,9.719100
2022-11-07T00:46:00.434Z,9.718756
2022-11-07T00:47:00.413Z,9.718765
2022-11-07T00:48:00.391Z,9.718701
2022-11-07T00:49:00.386Z,9.718813
2022-11-07T00:50:00.376Z,9.718843
2022-11-07T00:51:00.368Z,9.718922
2022-11-07T00:52:00.403Z,9.718951
2022-11-07T00:53:00.336Z,9.718885
2022-11-07T00:54:00.337Z,9.718937
2022-11-07T00:55:00.316Z,9.718885
2022-11-07T00:56:00.315Z,9.718764
2022-11-07T00:57:00.314Z,9.718772
2022-11-07T00:58:00.287Z,9.718678
2022-11-07T00:59:00.270Z,9.718752
2022-11-07T01:00:00.267Z,9.718777
2022-11-07T01:01:00.259Z,9.719038
2022-11-07T01:02:00.458Z,9.719004
2022-11-07T01:03:00.316Z,9.718988
2022-11-07T01:04:00.226Z,9.718941
2022-11-07T01:05:00.220Z,9.718973
2022-11-07T01:06:00.339Z,9.718957
2022-11-07T01:07:00.213Z,9.719050
2022-11-07T01:08:00.181Z,9.719023
2022-11-07T01:09:00.175Z,9.719037
2022-11-07T01:10:00.173Z,9.719044
2022-11-07T01:11:00.172Z,9.718964
2022-11-07T01:12:00.141Z,9.718990
2022-11-07T01:13:00.143Z,9.719060
2022-11-07T01:14:00.238Z,9.719030
2022-11-07T01:15:00.262Z,9.719088
2022-11-07T01:16:00.132Z,9.719070
2022-11-07T01:17:00.100Z,9.719097
2022-11-07T01:18:00.087Z,9.719113
2022-11-07T01:19:00.091Z,9.719122
2022-11-07T01:20:01.109Z,9.719151
2022-11-07T01:21:00.055Z,9.719078
2022-11-07T01:22:00.056Z,9.719139
2022-11-07T01:23:00.047Z,9.719100
2022-11-07T01:24:00.048Z,9.719133
2022-11-07T01:25:00.037Z,9.719184
2022-11-07T01:26:00.010Z,9.719130
2022-11-07T01:27:00.001Z,9.719094
2022-11-07T01:28:00.063Z,9.719111
2022-11-07T01:28:59.992Z,9.719115
2022-11-07T01:29:59.982Z,9.719142
2022-11-07T01:30:59.976Z,9.719201
2022-11-07T01:31:59.960Z,9.719132
2022-11-07T01:32:59.980Z,9.719165
2022-11-07T01:33:59.968Z,9.719163
2022-11-07T01:34:59.931Z,9.719075
2022-11-07T01:36:04.889Z,9.719060
2022-11-07T01:37:00.947Z,9.719031
2022-11-07T01:38:00.045Z,9.719149
2022-11-07T01:38:59.892Z,9.719159
2022-11-07T01:39:59.873Z,9.719007
2022-11-07T01:40:59.932Z,9.719101
2022-11-07T01:41:59.874Z,9.719164
2022-11-07T01:42:59.918Z,9.719141
2022-11-07T01:43:59.850Z,9.719063
2022-11-07T01:44:59.816Z,9.719119
2022-11-07T01:46:00.812Z,9.719099
2022-11-07T01:46:59.811Z,9.719074
2022-11-07T01:47:59.793Z,9.718932
2022-11-07T01:48:59.806Z,9.718999
2022-11-07T01:49:59.799Z,9.719077
2022-11-07T01:50:59.790Z,9.719152
2022-11-07T01:51:59.765Z,9.719186
2022-11-07T01:52:59.753Z,9.719080
2022-11-07T01:53:59.743Z,9.719002
2022-11-07T01:54:59.755Z,9.719089
2022-11-07T01:55:59.727Z,9.719159
2022-11-07T01:56:59.718Z,9.719169
2022-11-07T01:57:59.691Z,9.719171
2022-11-07T01:58:59.703Z,9.719171
2022-11-07T01:59:59.708Z,9.719108
2022-11-07T02:00:59.712Z,9.719079
2022-11-07T02:01:59.706Z,9.719093
2022-11-07T02:02:59.779Z,9.719036
2022-11-07T02:03:59.635Z,9.719046
2022-11-07T02:04:59.625Z,9.719123
2022-11-07T02:05:59.744Z,9.719078
2022-11-07T02:06:59.609Z,9.719082
2022-11-07T02:07:59.620Z,9.719095
2022-11-07T02:08:59.632Z,9.719085
2022-11-07T02:09:59.589Z,9.719090
2022-11-07T02:10:59.574Z,9.719121
2022-11-07T02:11:59.595Z,9.719190
2022-11-07T02:12:59.565Z,9.719228
2022-11-07T02:13:59.539Z,9.719301
2022-11-07T02:14:59.528Z,9.719252
2022-11-07T02:15:59.533Z,9.719222
2022-11-07T02:16:59.570Z,9.719211
2022-11-07T02:17:59.508Z,9.719195
2022-11-07T02:18:59.488Z,9.719278
2022-11-07T02:19:59.478Z,9.719089
2022-11-07T02:20:59.474Z,9.719103
2022-11-07T02:21:59.510Z,9.719058
2022-11-07T02:22:59.459Z,9.719187
2022-11-07T02:23:59.444Z,9.719090
2022-11-07T02:24:59.424Z,9.719123
2022-11-07T02:25:59.447Z,9.719123
2022-11-07T02:26:59.419Z,9.719132
2022-11-07T02:27:59.426Z,9.719153
2022-11-07T02:28:59.390Z,9.719160
2022-11-07T02:29:59.386Z,9.719192
2022-11-07T02:30:59.420Z,9.719200
2022-11-07T02:31:59.366Z,9.719239
2022-11-07T02:32:59.355Z,9.719200
2022-11-07T02:33:59.341Z,9.719212
2022-11-07T02:34:59.342Z,9.719243
2022-11-07T02:35:59.380Z,9.719172
2022-11-07T02:37:31.194Z,9.719156
2022-11-07T02:37:59.287Z,9.719155
2022-11-07T02:38:59.285Z,9.719105
2022-11-07T02:39:59.285Z,9.719160
2022-11-07T02:40:59.264Z,9.719186
2022-11-07T02:41:59.275Z,9.718991
2022-11-07T02:43:00.320Z,9.719007
2022-11-07T02:43:59.262Z,9.719078
2022-11-07T02:44:59.224Z,9.719068
2022-11-07T02:45:59.251Z,9.719107
2022-11-07T02:46:59.215Z,9.718962
2022-11-07T02:47:59.201Z,9.719003
2022-11-07T02:48:59.204Z,9.718977
2022-11-07T02:49:59.188Z,9.719051
2022-11-07T02:50:59.225Z,9.719046
2022-11-07T02:51:59.162Z,9.719050
2022-11-07T02:52:59.167Z,9.719100
2022-11-07T02:53:59.136Z,9.719315
2022-11-07T02:54:59.157Z,9.718835
2022-11-07T02:55:59.126Z,9.718775
2022-11-07T02:56:59.117Z,9.719003
2022-11-07T02:57:59.097Z,9.718849
2022-11-07T02:58:59.092Z,9.719172
2022-11-07T02:59:59.097Z,9.719122
2022-11-07T03:00:59.065Z,9.719042
2022-11-07T03:01:59.203Z,9.718863
2022-11-07T03:02:59.235Z,9.719002
2022-11-07T03:03:59.096Z,9.719228
2022-11-07T03:04:59.028Z,9.719253
2022-11-07T03:05:59.059Z,9.719267
2022-11-07T03:06:59.014Z,9.718950
2022-11-07T03:07:59.006Z,9.718807
2022-11-07T03:08:59.012Z,9.719273
2022-11-07T03:09:58.973Z,9.719271
2022-11-07T03:10:58.971Z,9.719056
2022-11-07T03:11:58.963Z,9.719176
2022-11-07T03:12:58.949Z,9.718937
2022-11-07T03:13:58.961Z,9.718956
2022-11-07T03:14:58.937Z,9.719003
2022-11-07T03:15:58.953Z,9.719140
2022-11-07T03:16:58.909Z,9.719149
2022-11-07T03:17:58.890Z,9.719086
2022-11-07T03:18:58.885Z,9.719078
2022-11-07T03:19:58.925Z,9.719148
2022-11-07T03:20:58.882Z,9.719230
2022-11-07T03:21:58.856Z,9.719131
2022-11-07T03:22:58.856Z,9.719156
2022-11-07T03:23:58.842Z,9.718979
2022-11-07T03:24:58.903Z,9.718937
2022-11-07T03:25:58.817Z,9.719106
2022-11-07T03:26:58.808Z,9.719172
2022-11-07T03:27:58.806Z,9.719128
2022-11-07T03:28:58.806Z,9.719106
2022-11-07T03:29:58.783Z,9.719090
2022-11-07T03:30:59.784Z,9.719128
2022-11-07T03:31:58.759Z,9.719090
2022-11-07T03:32:58.756Z,9.719139
2022-11-07T03:33:58.744Z,9.719018
2022-11-07T03:34:58.735Z,9.719147
2022-11-07T03:35:58.739Z,9.719197
2022-11-07T03:36:58.731Z,9.719273
2022-11-07T03:37:58.699Z,9.719181
2022-11-07T03:38:58.690Z,9.719115
2022-11-07T03:39:58.693Z,9.719056
2022-11-07T03:40:58.756Z,9.719398
2022-11-07T03:41:58.661Z,9.719352
2022-11-07T03:42:58.661Z,9.719399
2022-11-07T03:43:58.657Z,9.719694
2022-11-07T03:44:58.668Z,9.719591
2022-11-07T03:45:58.647Z,9.719456
2022-11-07T03:46:58.609Z,9.719281
2022-11-07T03:47:58.610Z,9.719339
2022-11-07T03:48:59.604Z,9.719391
2022-11-07T03:49:58.591Z,9.719769
2022-11-07T03:50:58.584Z,9.719607
2022-11-07T03:51:58.585Z,9.719357
2022-11-07T03:52:58.576Z,9.719373
2022-11-07T03:53:58.545Z,9.719288
2022-11-07T03:54:58.563Z,9.719255
2022-11-07T03:55:58.536Z,9.719347
2022-11-07T03:56:58.570Z,9.719149
2022-11-07T03:57:58.531Z,9.719259
2022-11-07T03:58:58.514Z,9.719198
2022-11-07T03:59:58.496Z,9.718912
2022-11-07T04:00:58.480Z,9.718712
2022-11-07T04:01:58.624Z,9.718888
2022-11-07T04:02:58.640Z,9.719022
2022-11-07T04:03:58.447Z,9.719113
2022-11-07T04:04:58.438Z,9.719115
2022-11-07T04:05:58.419Z,9.718962
2022-11-07T04:06:58.423Z,9.719015
2022-11-07T04:07:58.416Z,9.719095
2022-11-07T04:08:58.411Z,9.719081
2022-11-07T04:09:58.406Z,9.719200
2022-11-07T04:10:58.452Z,9.719266
2022-11-07T04:11:58.398Z,9.719084
2022-11-07T04:12:58.372Z,9.719133
2022-11-07T04:13:58.354Z,9.719285
2022-11-07T04:14:58.355Z,9.719217
2022-11-07T04:15:58.334Z,9.719261
2022-11-07T04:16:58.384Z,9.719418
2022-11-07T04:17:58.318Z,9.719516
2022-11-07T04:18:58.311Z,9.719749
2022-11-07T04:19:58.300Z,9.719574
2022-11-07T04:20:58.282Z,9.719277
2022-11-07T04:21:58.268Z,9.719448
2022-11-07T04:22:58.267Z,9.719407
2022-11-07T04:23:58.255Z,9.719218
2022-11-07T04:24:58.240Z,9.719101
2022-11-07T04:25:58.234Z,9.719036
2022-11-07T04:26:58.234Z,9.719049
2022-11-07T04:27:58.243Z,9.719092
2022-11-07T04:28:58.199Z,9.719157
2022-11-07T04:29:58.200Z,9.719028
2022-11-07T04:30:58.186Z,9.719096
2022-11-07T04:31:58.226Z,9.719064
2022-11-07T04:32:58.159Z,9.719069
2022-11-07T04:33:58.178Z,9.719168
2022-11-07T04:34:58.150Z,9.719178
2022-11-07T04:35:58.129Z,9.719116
2022-11-07T04:36:58.121Z,9.719073
2022-11-07T04:37:58.127Z,9.719005
2022-11-07T04:38:58.113Z,9.718993
2022-11-07T04:39:58.098Z,9.719254
2022-11-07T04:40:58.103Z,9.719189
2022-11-07T04:41:58.072Z,9.719078
2022-11-07T04:42:58.067Z,9.719065
2022-11-07T04:43:58.048Z,9.719075
2022-11-07T04:44:58.114Z,9.719034
2022-11-07T04:45:58.047Z,9.719069
2022-11-07T04:46:58.022Z,9.719095
2022-11-07T04:47:58.007Z,9.719110
2022-11-07T04:48:58.000Z,9.719110
2022-11-07T04:49:58.092Z,9.719072
2022-11-07T04:50:57.977Z,9.719107
2022-11-07T04:51:57.962Z,9.719128
2022-11-07T04:52:57.972Z,9.719145
2022-11-07T04:53:57.999Z,9.719097
2022-11-07T04:54:57.943Z,9.719135
2022-11-07T04:55:57.936Z,9.719238
2022-11-07T04:56:57.931Z,9.719162
2022-11-07T04:57:57.924Z,9.719120
2022-11-07T04:58:57.969Z,9.719024
2022-11-07T04:59:57.904Z,9.719200
2022-11-07T05:00:57.880Z,9.719282
2022-11-07T05:01:57.985Z,9.719267
2022-11-07T05:02:57.912Z,9.719203
2022-11-07T05:03:57.890Z,9.719090
2022-11-07T05:04:57.839Z,9.719136
2022-11-07T05:05:57.825Z,9.719196
2022-11-07T05:06:57.821Z,9.719173
2022-11-07T05:07:57.848Z,9.719170
2022-11-07T05:08:57.794Z,9.719206
2022-11-07T05:09:57.822Z,9.719284
2022-11-07T05:10:57.777Z,9.719315
2022-11-07T05:11:57.760Z,9.719216
2022-11-07T05:12:57.756Z,9.719048
2022-11-07T05:13:57.761Z,9.719066
2022-11-07T05:14:57.764Z,9.718786
2022-11-07T05:15:57.736Z,9.718744
2022-11-07T05:16:57.722Z,9.719093
2022-11-07T05:17:57.720Z,9.719354
2022-11-07T05:18:57.710Z,9.718657
2022-11-07T05:19:57.712Z,9.718430
2022-11-07T05:20:57.690Z,9.719086
2022-11-07T05:21:57.725Z,9.719754
2022-11-07T05:22:57.685Z,9.719564
2022-11-07T05:23:57.658Z,9.719681
2022-11-07T05:24:57.657Z,9.719690
2022-11-07T05:25:57.647Z,9.720047
2022-11-07T05:26:57.658Z,9.719895
2022-11-07T05:27:57.617Z,9.719898
2022-11-07T05:28:57.624Z,9.720030
2022-11-07T05:29:57.591Z,9.719432
2022-11-07T05:30:57.610Z,9.719370
2022-11-07T05:31:57.594Z,9.719252
2022-11-07T05:32:57.563Z,9.719617
2022-11-07T05:33:57.575Z,9.719587
2022-11-07T05:34:57.586Z,9.719563
2022-11-07T05:35:57.543Z,9.719914
2022-11-07T05:36:57.543Z,9.719674
2022-11-07T05:37:57.531Z,9.720273
2022-11-07T05:38:57.526Z,9.719657
2022-11-07T05:39:57.551Z,9.719670
2022-11-07T05:40:57.493Z,9.719187
2022-11-07T05:41:57.479Z,9.719250
2022-11-07T05:42:57.492Z,9.719109
2022-11-07T05:43:57.456Z,9.719046
2022-11-07T05:44:57.440Z,9.719130
2022-11-07T05:45:57.497Z,9.719167
2022-11-07T05:46:57.456Z,9.719153
2022-11-07T05:47:57.470Z,9.718944
2022-11-07T05:49:00.903Z,9.719110
2022-11-07T05:49:58.396Z,9.719065
2022-11-07T05:50:57.398Z,9.719172
2022-11-07T05:51:57.386Z,9.719228
2022-11-07T05:52:57.418Z,9.719147
2022-11-07T05:53:57.382Z,9.719171
2022-11-07T05:54:57.382Z,9.719042
2022-11-07T05:55:57.359Z,9.719092
2022-11-07T05:56:57.338Z,9.719176
2022-11-07T05:57:57.315Z,9.719224
2022-11-07T05:58:57.348Z,9.719199
2022-11-07T05:59:57.311Z,9.719135
2022-11-07T06:00:57.299Z,9.719181
2022-11-07T06:01:57.358Z,9.719114
2022-11-07T06:02:57.516Z,9.719107
2022-11-07T06:03:57.293Z,9.719216
2022-11-07T06:04:57.240Z,9.719228
2022-11-07T06:05:57.269Z,9.719077
2022-11-07T06:06:57.227Z,9.719106
2022-11-07T06:07:57.222Z,9.719037
2022-11-07T06:08:57.266Z,9.719004
2022-11-07T06:09:57.275Z,9.719114
2022-11-07T06:10:57.192Z,9.719095
2022-11-07T06:11:57.182Z,9.719097
2022-11-07T06:12:57.177Z,9.719098
2022-11-07T06:13:57.192Z,9.719084
2022-11-07T06:14:57.167Z,9.719238
2022-11-07T06:15:57.163Z,9.719110
2022-11-07T06:16:57.139Z,9.719208
2022-11-07T06:17:57.130Z,9.719073
2022-11-07T06:18:57.126Z,9.719150
2022-11-07T06:19:57.124Z,9.719164
2022-11-07T06:20:57.086Z,9.719265
2022-11-07T06:21:57.106Z,9.719090
2022-11-07T06:22:57.078Z,9.719073
2022-11-07T06:23:57.075Z,9.719169
2022-11-07T06:24:57.059Z,9.719364
2022-11-07T06:25:57.068Z,9.719131
2022-11-07T06:26:57.079Z,9.719297
2022-11-07T06:27:57.031Z,9.719264
2022-11-07T06:28:57.016Z,9.719308
2022-11-07T06:29:57.007Z,9.719173
2022-11-07T06:30:57.005Z,9.719050
2022-11-07T06:31:57.005Z,9.719056
2022-11-07T06:32:56.989Z,9.719132
2022-11-07T06:33:57.039Z,9.719151
2022-11-07T06:34:56.956Z,9.719079
2022-11-07T06:35:56.956Z,9.718834
2022-11-07T06:37:02.827Z,9.718961
2022-11-07T06:37:57.959Z,9.719036
2022-11-07T06:38:56.933Z,9.719127
2022-11-07T06:39:56.916Z,9.719229
2022-11-07T06:40:56.941Z,9.719257
2022-11-07T06:41:56.885Z,9.719183
2022-11-07T06:42:56.873Z,9.719165
2022-11-07T06:43:56.912Z,9.719344
2022-11-07T06:44:56.885Z,9.719327
2022-11-07T06:45:56.869Z,9.719184
2022-11-07T06:46:56.946Z,9.719197
2022-11-07T06:47:56.829Z,9.718929
2022-11-07T06:48:56.842Z,9.718974
2022-11-07T06:49:56.816Z,9.719054
2022-11-07T06:50:56.821Z,9.719008
2022-11-07T06:51:56.791Z,9.719126
2022-11-07T06:52:56.778Z,9.719239
2022-11-07T06:53:56.798Z,9.718912
2022-11-07T06:54:56.779Z,9.718962
2022-11-07T06:55:56.773Z,9.719036
2022-11-07T06:56:56.739Z,9.718963
2022-11-07T06:57:56.735Z,9.719027
2022-11-07T06:58:56.725Z,9.719011
2022-11-07T06:59:56.715Z,9.719012
2022-11-07T07:00:56.856Z,9.719158
2022-11-07T07:01:56.770Z,9.719104
2022-11-07T07:02:59.081Z,9.719109
2022-11-07T07:03:57.713Z,9.718978
2022-11-07T07:04:56.680Z,9.719096
2022-11-07T07:05:56.698Z,9.719121
2022-11-07T07:06:56.642Z,9.718994
2022-11-07T07:07:56.662Z,9.719082
2022-11-07T07:08:56.655Z,9.719098
2022-11-07T07:09:56.624Z,9.719120
2022-11-07T07:10:56.624Z,9.719150
2022-11-07T07:11:56.586Z,9.719101
2022-11-07T07:12:56.651Z,9.719118
2022-11-07T07:14:01.169Z,9.719176
2022-11-07T07:14:58.581Z,9.719213
2022-11-07T07:15:56.594Z,9.719128
2022-11-07T07:16:56.552Z,9.719155
2022-11-07T07:17:56.632Z,9.719087
2022-11-07T07:18:56.575Z,9.719193
2022-11-07T07:19:56.567Z,9.719208
2022-11-07T07:20:56.506Z,9.719240
2022-11-07T07:21:56.505Z,9.719121
2022-11-07T07:23:01.452Z,9.719156
2022-11-07T07:23:58.196Z,9.719139
2022-11-07T07:24:56.478Z,9.719171
2022-11-07T07:25:56.467Z,9.719192
2022-11-07T07:26:56.454Z,9.719231
2022-11-07T07:27:56.452Z,9.719298
2022-11-07T07:28:56.436Z,9.719230
2022-11-07T07:29:56.489Z,9.719173
2022-11-07T07:30:56.443Z,9.719101
2022-11-07T07:31:56.453Z,9.719091
2022-11-07T07:32:56.390Z,9.719141
2022-11-07T07:33:56.391Z,9.719265
2022-11-07T07:34:56.436Z,9.719371
2022-11-07T07:35:56.343Z,9.719496
2022-11-07T07:36:56.411Z,9.720444
2022-11-07T07:37:56.344Z,9.720107
2022-11-07T07:38:56.330Z,9.719710
2022-11-07T07:39:56.343Z,9.719434
2022-11-07T07:40:56.331Z,9.719257
2022-11-07T07:41:56.306Z,9.719296
2022-11-07T07:42:56.370Z,9.719302
2022-11-07T07:43:56.284Z,9.719165
2022-11-07T07:44:56.272Z,9.719264
2022-11-07T07:45:56.366Z,9.719379
2022-11-07T07:46:56.251Z,9.719413
2022-11-07T07:47:56.280Z,9.719318
2022-11-07T07:48:56.229Z,9.719382
2022-11-07T07:49:56.256Z,9.719321
2022-11-07T07:50:56.215Z,9.719266
2022-11-07T07:51:56.216Z,9.719312
2022-11-07T07:52:56.187Z,9.719465
2022-11-07T07:53:56.201Z,9.719644
2022-11-07T07:54:56.208Z,9.719624
2022-11-07T07:55:56.178Z,9.719547
2022-11-07T07:56:56.147Z,9.719458
2022-11-07T07:57:56.166Z,9.719478
2022-11-07T07:58:56.135Z,9.719545
2022-11-07T07:59:56.129Z,9.719706
2022-11-07T08:00:56.153Z,9.719629
2022-11-07T08:01:57.304Z,9.719504
2022-11-07T08:02:57.110Z,9.719420
2022-11-07T08:04:02.077Z,9.719370
2022-11-07T08:04:58.102Z,9.719452
2022-11-07T08:05:56.077Z,9.719423
2022-11-07T08:06:56.066Z,9.719473
2022-11-07T08:07:56.057Z,9.719512
2022-11-07T08:08:56.052Z,9.719362
2022-11-07T08:09:57.318Z,9.719385
2022-11-07T08:10:56.051Z,9.719379
2022-11-07T08:11:56.018Z,9.719413
2022-11-07T08:12:55.992Z,9.719339
2022-11-07T08:14:00.841Z,9.719503
2022-11-07T08:14:57.976Z,9.719466
2022-11-07T08:15:56.029Z,9.719188
2022-11-07T08:16:56.024Z,9.719245
2022-11-07T08:17:56.067Z,9.719294
2022-11-07T08:18:55.955Z,9.719395
2022-11-07T08:19:55.981Z,9.719505
2022-11-07T08:20:55.911Z,9.719487
2022-11-07T08:21:55.907Z,9.719320
2022-11-07T08:22:55.892Z,9.719463
2022-11-07T08:23:55.983Z,9.719430
2022-11-07T08:24:55.885Z,9.719378
2022-11-07T08:25:55.917Z,9.719418
2022-11-07T08:26:55.866Z,9.719366
2022-11-07T08:27:55.911Z,9.719324
2022-11-07T08:28:55.867Z,9.719535
2022-11-07T08:29:55.829Z,9.719383
2022-11-07T08:30:55.839Z,9.719186
2022-11-07T08:31:55.816Z,9.719338
2022-11-07T08:32:55.802Z,9.719130
2022-11-07T08:33:55.859Z,9.719174
2022-11-07T08:34:55.818Z,9.719234
2022-11-07T08:35:55.774Z,9.719228
2022-11-07T08:37:22.690Z,9.719264
2022-11-07T08:37:55.747Z,9.719298
2022-11-07T08:38:55.793Z,9.719090
2022-11-07T08:39:55.739Z,9.719168
2022-11-07T08:40:55.725Z,9.719208
2022-11-07T08:41:55.728Z,9.719150
2022-11-07T08:42:55.758Z,9.719077
2022-11-07T08:43:55.726Z,9.719250
2022-11-07T08:44:55.718Z,9.719300
2022-11-07T08:45:55.677Z,9.719246
2022-11-07T08:46:55.698Z,9.719245
2022-11-07T08:47:55.701Z,9.719172
2022-11-07T08:48:55.638Z,9.719254
2022-11-07T08:49:55.678Z,9.719161
2022-11-07T08:50:55.632Z,9.719194
2022-11-07T08:51:55.627Z,9.719207
2022-11-07T08:53:01.187Z,9.719176
2022-11-07T08:53:57.600Z,9.719062
2022-11-07T08:54:55.593Z,9.719312
2022-11-07T08:55:55.582Z,9.719359
2022-11-07T08:56:55.570Z,9.719482
2022-11-07T08:57:55.591Z,9.719465
2022-11-07T08:58:55.591Z,9.719385
2022-11-07T08:59:55.645Z,9.719410
2022-11-07T09:00:55.589Z,9.719451
2022-11-07T09:02:39.108Z,9.719382
2022-11-07T09:03:30.812Z,9.719387
2022-11-07T09:03:58.572Z,9.719378
2022-11-07T09:04:56.495Z,9.719318
2022-11-07T09:05:55.567Z,9.719356
2022-11-07T09:06:55.529Z,9.719333
2022-11-07T09:07:55.476Z,9.719417
2022-11-07T09:08:55.471Z,9.719430
2022-11-07T09:09:55.440Z,9.719416
2022-11-07T09:10:55.472Z,9.719413
2022-11-07T09:11:55.471Z,9.719360
2022-11-07T09:12:55.423Z,9.719272
2022-11-07T09:13:55.441Z,9.719362
2022-11-07T09:14:55.395Z,9.719308
2022-11-07T09:15:55.392Z,9.719300
2022-11-07T09:16:55.385Z,9.719314
2022-11-07T09:17:55.356Z,9.719331
2022-11-07T09:18:55.366Z,9.719239
2022-11-07T09:19:55.351Z,9.719263
2022-11-07T09:20:55.352Z,9.719228
2022-11-07T09:21:55.351Z,9.719234
2022-11-07T09:22:55.339Z,9.719253
2022-11-07T09:23:55.329Z,9.719176
2022-11-07T09:24:55.301Z,9.719159
2022-11-07T09:25:55.278Z,9.719239
2022-11-07T09:26:55.283Z,9.719269
2022-11-07T09:27:55.291Z,9.719155
2022-11-07T09:29:00.828Z,9.719349
2022-11-07T09:29:57.248Z,9.719274
2022-11-07T09:30:55.291Z,9.719235
2022-11-07T09:31:55.267Z,9.719202
2022-11-07T09:32:55.229Z,9.719211
2022-11-07T09:33:55.211Z,9.719314
2022-11-07T09:34:58.318Z,9.719098
2022-11-07T09:35:56.234Z,9.718884
2022-11-07T09:36:55.205Z,9.719348
2022-11-07T09:37:55.248Z,9.719385
2022-11-07T09:38:55.290Z,9.719176
2022-11-07T09:39:55.162Z,9.719196
2022-11-07T09:40:55.144Z,9.719375
2022-11-07T09:41:55.150Z,9.719453
2022-11-07T09:42:55.155Z,9.719329
2022-11-07T09:43:55.104Z,9.719183
2022-11-07T09:44:55.117Z,9.719162
2022-11-07T09:45:55.101Z,9.719175
2022-11-07T09:46:55.084Z,9.719103
2022-11-07T09:47:55.096Z,9.719018
2022-11-07T09:48:55.097Z,9.719157
2022-11-07T09:49:55.057Z,9.719104
2022-11-07T09:50:55.045Z,9.719195
2022-11-07T09:51:55.028Z,9.719033
2022-11-07T09:52:55.028Z,9.719156
2022-11-07T09:53:55.058Z,9.719053
2022-11-07T09:54:55.007Z,9.719103
2022-11-07T09:55:55.007Z,9.718994
2022-11-07T09:56:55.030Z,9.718987
2022-11-07T09:57:54.989Z,9.719119
2022-11-07T09:58:54.996Z,9.719254
2022-11-07T09:59:54.975Z,9.719227
2022-11-07T10:00:54.968Z,9.719227
2022-11-07T10:01:55.005Z,9.719192
2022-11-07T10:02:54.922Z,9.719228
2022-11-07T10:04:25.389Z,9.719275
2022-11-07T10:04:56.900Z,9.719221
2022-11-07T10:05:54.896Z,9.719176
2022-11-07T10:06:54.917Z,9.719144
2022-11-07T10:07:54.880Z,9.719204
2022-11-07T10:08:54.889Z,9.719195
2022-11-07T10:09:54.857Z,9.719154
2022-11-07T10:10:54.847Z,9.719196
2022-11-07T10:11:54.874Z,9.719143
2022-11-07T10:12:54.822Z,9.719169
2022-11-07T10:13:54.805Z,9.719182
2022-11-07T10:14:54.809Z,9.719145
2022-11-07T10:15:54.859Z,9.719203
2022-11-07T10:16:54.787Z,9.719168
2022-11-07T10:17:54.793Z,9.719114
2022-11-07T10:18:54.822Z,9.719136
2022-11-07T10:19:54.754Z,9.719135
2022-11-07T10:21:10.157Z,9.719361
2022-11-07T10:21:55.912Z,9.719552
2022-11-07T10:22:54.741Z,9.719572
2022-11-07T10:23:54.714Z,9.719569
2022-11-07T10:24:54.704Z,9.719199
2022-11-07T10:25:54.713Z,9.719322
2022-11-07T10:26:54.704Z,9.719452
2022-11-07T10:27:54.679Z,9.719133
2022-11-07T10:28:54.671Z,9.719173
2022-11-07T10:29:54.702Z,9.719316
2022-11-07T10:30:54.645Z,9.719436
2022-11-07T10:31:54.645Z,9.719459
2022-11-07T10:32:54.629Z,9.719212
2022-11-07T10:33:54.630Z,9.719274
2022-11-07T10:34:54.961Z,9.719362
2022-11-07T10:35:55.592Z,9.719440
2022-11-07T10:36:54.608Z,9.719333
2022-11-07T10:37:54.606Z,9.719264
2022-11-07T10:38:54.600Z,9.719284
2022-11-07T10:39:54.586Z,9.719327
2022-11-07T10:40:54.549Z,9.719378
2022-11-07T10:41:54.546Z,9.719398
2022-11-07T10:42:54.568Z,9.719379
2022-11-07T10:43:54.527Z,9.719294
2022-11-07T10:44:54.510Z,9.719287
2022-11-07T10:45:54.513Z,9.719255
2022-11-07T10:46:54.877Z,9.719339
2022-11-07T10:47:54.502Z,9.719307
2022-11-07T10:48:54.541Z,9.719376
2022-11-07T10:49:54.484Z,9.719371
2022-11-07T10:50:54.470Z,9.719375
2022-11-07T10:51:54.449Z,9.719375
2022-11-07T10:52:54.447Z,9.719375
2022-11-07T10:53:54.455Z,9.719375
2022-11-07T10:54:54.431Z,9.719375
2022-11-07T10:55:54.408Z,9.719375
2022-11-07T10:56:54.418Z,9.718859
2022-11-07T10:57:54.437Z,9.718921
2022-11-07T10:58:54.385Z,9.718940
2022-11-07T10:59:54.426Z,9.719116
2022-11-07T11:00:54.383Z,9.719193
2022-11-07T11:01:54.410Z,9.719147
2022-11-07T11:02:54.377Z,9.719304
2022-11-07T11:03:54.334Z,9.719330
2022-11-07T11:04:54.469Z,9.719322
2022-11-07T11:05:54.314Z,9.719340
2022-11-07T11:06:54.302Z,9.719401
2022-11-07T11:07:54.304Z,9.719293
2022-11-07T11:08:54.280Z,9.719312
2022-11-07T11:09:54.270Z,9.719406
2022-11-07T11:10:54.282Z,9.719505
2022-11-07T11:11:54.346Z,9.719473
2022-11-07T11:12:54.252Z,9.719487
2022-11-07T11:13:54.233Z,9.719437
2022-11-07T11:14:54.263Z,9.719465
2022-11-07T11:15:54.207Z,9.719371
2022-11-07T11:16:54.289Z,9.719355
2022-11-07T11:17:54.197Z,9.719385
2022-11-07T11:18:55.189Z,9.719441
2022-11-07T11:19:54.231Z,9.719548
2022-11-07T11:20:54.167Z,9.719557
2022-11-07T11:21:54.184Z,9.719480
2022-11-07T11:22:54.141Z,9.719402
2022-11-07T11:23:54.132Z,9.719338
2022-11-07T11:24:54.155Z,9.719356
2022-11-07T11:25:54.121Z,9.719238
2022-11-07T11:26:54.123Z,9.719248
2022-11-07T11:27:54.110Z,9.719248
2022-11-07T11:28:54.105Z,9.719248
2022-11-07T11:29:54.075Z,9.719248
2022-11-07T11:30:54.119Z,9.719248
2022-11-07T11:31:54.063Z,9.719871
2022-11-07T11:32:54.102Z,9.719321
2022-11-07T11:33:54.040Z,9.719380
2022-11-07T11:34:54.104Z,9.719297
2022-11-07T11:35:54.037Z,9.719004
2022-11-07T11:36:54.027Z,9.719365
2022-11-07T11:37:54.021Z,9.719242
2022-11-07T11:38:54.033Z,9.719173
2022-11-07T11:39:54.000Z,9.719140
2022-11-07T11:41:01.502Z,9.719404
2022-11-07T11:41:55.963Z,9.719457
2022-11-07T11:42:53.957Z,9.719325
2022-11-07T11:43:53.990Z,9.719046